sensor_id;sensor_type;location;lat;lon;timestamp;P1;durP1;ratioP1;P2;durP2;ratioP2
10335;SDS011;5213;53.548;9.930;2023-09-12T00:01:32;57.63;;;43.67;;
10335;SDS011;5213;53.548;9.930;2023-09-12T00:03:58;57.47;;;41.80;;
10335;SDS011;5213;53.548;9.930;2023-09-12T00:06:24;48.53;;;38.50;;
10335;SDS011;5213;53.548;9.930;2023-09-12T00:08:51;50.97;;;36.83;;
10335;SDS011;5213;53.548;9.930;2023-09-12T00:11:17;42.78;;;34.85;;
10335;SDS011;5213;53.548;9.930;2023-09-12T00:13:43;47.17;;;35.17;;
10335;SDS011;5213;53.548;9.930;2023-09-12T00:16:09;46.17;;;35.40;;
10335;SDS011;5213;53.548;9.930;2023-09-12T00:18:35;50.47;;;35.30;;
10335;SDS011;5213;53.548;9.930;2023-09-12T00:21:02;47.70;;;34.65;;
10335;SDS011;5213;53.548;9.930;2023-09-12T00:23:28;42.95;;;35.25;;
10335;SDS011;5213;53.548;9.930;2023-09-12T00:25:54;44.33;;;34.42;;
10335;SDS011;5213;53.548;9.930;2023-09-12T00:28:20;44.05;;;33.42;;
10335;SDS011;5213;53.548;9.930;2023-09-12T00:30:47;43.70;;;32.28;;
10335;SDS011;5213;53.548;9.930;2023-09-12T00:33:12;44.75;;;33.72;;
10335;SDS011;5213;53.548;9.930;2023-09-12T00:35:38;48.20;;;33.70;;
10335;SDS011;5213;53.548;9.930;2023-09-12T00:38:04;41.97;;;32.35;;
10335;SDS011;5213;53.548;9.930;2023-09-12T00:40:31;45.08;;;32.78;;
10335;SDS011;5213;53.548;9.930;2023-09-12T00:42:57;43.40;;;32.70;;
10335;SDS011;5213;53.548;9.930;2023-09-12T00:45:23;37.95;;;30.92;;
10335;SDS011;5213;53.548;9.930;2023-09-12T00:47:49;35.85;;;29.80;;
10335;SDS011;5213;53.548;9.930;2023-09-12T00:50:17;42.05;;;30.55;;
10335;SDS011;5213;53.548;9.930;2023-09-12T00:52:44;39.75;;;29.58;;
10335;SDS011;5213;53.548;9.930;2023-09-12T00:55:10;39.58;;;31.08;;
10335;SDS011;5213;53.548;9.930;2023-09-12T00:57:36;41.10;;;31.75;;
10335;SDS011;5213;53.548;9.930;2023-09-12T01:00:02;38.50;;;29.98;;
10335;SDS011;5213;53.548;9.930;2023-09-12T01:02:39;38.25;;;30.60;;
10335;SDS011;5213;53.548;9.930;2023-09-12T01:05:10;39.47;;;30.88;;
10335;SDS011;5213;53.548;9.930;2023-09-12T01:07:40;37.78;;;29.38;;
10335;SDS011;5213;53.548;9.930;2023-09-12T01:10:07;35.03;;;30.00;;
10335;SDS011;5213;53.548;9.930;2023-09-12T01:12:34;38.35;;;29.77;;
10335;SDS011;5213;53.548;9.930;2023-09-12T01:14:59;40.42;;;30.38;;
10335;SDS011;5213;53.548;9.930;2023-09-12T01:17:25;37.33;;;30.85;;
10335;SDS011;5213;53.548;9.930;2023-09-12T01:19:52;35.33;;;29.27;;
10335;SDS011;5213;53.548;9.930;2023-09-12T01:22:26;42.00;;;31.08;;
10335;SDS011;5213;53.548;9.930;2023-09-12T01:25:08;44.08;;;33.00;;
10335;SDS011;5213;53.548;9.930;2023-09-12T01:27:45;38.70;;;30.55;;
10335;SDS011;5213;53.548;9.930;2023-09-12T01:30:14;43.22;;;32.22;;
10335;SDS011;5213;53.548;9.930;2023-09-12T01:32:42;43.13;;;32.58;;
10335;SDS011;5213;53.548;9.930;2023-09-12T01:35:09;42.40;;;31.40;;
10335;SDS011;5213;53.548;9.930;2023-09-12T01:37:34;41.17;;;32.08;;
10335;SDS011;5213;53.548;9.930;2023-09-12T01:40:00;45.17;;;32.42;;
10335;SDS011;5213;53.548;9.930;2023-09-12T01:42:30;43.47;;;32.35;;
10335;SDS011;5213;53.548;9.930;2023-09-12T01:45:00;42.10;;;32.22;;
10335;SDS011;5213;53.548;9.930;2023-09-12T01:47:27;39.92;;;30.90;;
10335;SDS011;5213;53.548;9.930;2023-09-12T01:49:55;41.70;;;31.88;;
10335;SDS011;5213;53.548;9.930;2023-09-12T01:52:23;46.85;;;32.17;;
10335;SDS011;5213;53.548;9.930;2023-09-12T01:54:50;41.65;;;31.00;;
10335;SDS011;5213;53.548;9.930;2023-09-12T01:57:17;37.72;;;29.70;;
10335;SDS011;5213;53.548;9.930;2023-09-12T01:59:46;37.45;;;29.50;;
10335;SDS011;5213;53.548;9.930;2023-09-12T02:02:13;39.15;;;29.30;;
10335;SDS011;5213;53.548;9.930;2023-09-12T02:04:39;39.17;;;30.23;;
10335;SDS011;5213;53.548;9.930;2023-09-12T02:07:05;39.35;;;29.65;;
10335;SDS011;5213;53.548;9.930;2023-09-12T02:09:30;43.72;;;31.25;;
10335;SDS011;5213;53.548;9.930;2023-09-12T02:11:56;37.75;;;29.92;;
10335;SDS011;5213;53.548;9.930;2023-09-12T02:14:21;40.40;;;29.83;;
10335;SDS011;5213;53.548;9.930;2023-09-12T02:16:47;36.97;;;30.10;;
10335;SDS011;5213;53.548;9.930;2023-09-12T02:19:12;40.63;;;31.83;;
10335;SDS011;5213;53.548;9.930;2023-09-12T02:21:38;40.85;;;30.75;;
10335;SDS011;5213;53.548;9.930;2023-09-12T02:24:04;41.67;;;31.52;;
10335;SDS011;5213;53.548;9.930;2023-09-12T02:26:29;42.08;;;31.17;;
10335;SDS011;5213;53.548;9.930;2023-09-12T02:28:56;40.55;;;29.55;;
10335;SDS011;5213;53.548;9.930;2023-09-12T02:31:21;39.67;;;30.85;;
10335;SDS011;5213;53.548;9.930;2023-09-12T02:33:47;36.95;;;30.00;;
10335;SDS011;5213;53.548;9.930;2023-09-12T02:36:13;40.00;;;30.25;;
10335;SDS011;5213;53.548;9.930;2023-09-12T02:38:38;41.40;;;31.05;;
10335;SDS011;5213;53.548;9.930;2023-09-12T02:41:04;42.88;;;31.10;;
10335;SDS011;5213;53.548;9.930;2023-09-12T02:43:29;39.03;;;30.60;;
10335;SDS011;5213;53.548;9.930;2023-09-12T02:45:55;39.40;;;30.55;;
10335;SDS011;5213;53.548;9.930;2023-09-12T02:48:21;40.20;;;31.02;;
10335;SDS011;5213;53.548;9.930;2023-09-12T02:50:46;42.65;;;30.13;;
10335;SDS011;5213;53.548;9.930;2023-09-12T02:53:12;43.00;;;33.15;;
10335;SDS011;5213;53.548;9.930;2023-09-12T02:55:41;44.55;;;34.10;;
10335;SDS011;5213;53.548;9.930;2023-09-12T02:58:07;46.80;;;35.10;;
10335;SDS011;5213;53.548;9.930;2023-09-12T03:00:37;46.38;;;36.50;;
10335;SDS011;5213;53.548;9.930;2023-09-12T03:03:04;53.35;;;35.97;;
10335;SDS011;5213;53.548;9.930;2023-09-12T03:05:30;49.80;;;36.90;;
10335;SDS011;5213;53.548;9.930;2023-09-12T03:07:55;47.78;;;36.70;;
10335;SDS011;5213;53.548;9.930;2023-09-12T03:10:21;52.20;;;36.80;;
10335;SDS011;5213;53.548;9.930;2023-09-12T03:12:46;50.80;;;37.78;;
10335;SDS011;5213;53.548;9.930;2023-09-12T03:15:12;48.90;;;37.38;;
10335;SDS011;5213;53.548;9.930;2023-09-12T03:17:37;51.00;;;38.08;;
10335;SDS011;5213;53.548;9.930;2023-09-12T03:20:03;52.03;;;39.08;;
10335;SDS011;5213;53.548;9.930;2023-09-12T03:22:32;53.00;;;37.92;;
10335;SDS011;5213;53.548;9.930;2023-09-12T03:25:02;51.85;;;38.65;;
10335;SDS011;5213;53.548;9.930;2023-09-12T03:27:31;56.40;;;40.05;;
10335;SDS011;5213;53.548;9.930;2023-09-12T03:29:57;53.30;;;38.72;;
10335;SDS011;5213;53.548;9.930;2023-09-12T03:32:23;53.13;;;38.63;;
10335;SDS011;5213;53.548;9.930;2023-09-12T03:34:48;52.83;;;38.08;;
10335;SDS011;5213;53.548;9.930;2023-09-12T03:37:14;50.35;;;37.65;;
10335;SDS011;5213;53.548;9.930;2023-09-12T03:39:40;50.88;;;38.05;;
10335;SDS011;5213;53.548;9.930;2023-09-12T03:42:06;55.40;;;38.97;;
10335;SDS011;5213;53.548;9.930;2023-09-12T03:44:31;51.17;;;39.22;;
10335;SDS011;5213;53.548;9.930;2023-09-12T03:46:57;53.28;;;39.47;;
10335;SDS011;5213;53.548;9.930;2023-09-12T03:49:23;50.53;;;36.92;;
10335;SDS011;5213;53.548;9.930;2023-09-12T03:51:49;56.45;;;40.92;;
10335;SDS011;5213;53.548;9.930;2023-09-12T03:54:14;52.90;;;39.55;;
10335;SDS011;5213;53.548;9.930;2023-09-12T03:56:40;51.63;;;38.97;;
10335;SDS011;5213;53.548;9.930;2023-09-12T03:59:05;53.22;;;38.20;;
10335;SDS011;5213;53.548;9.930;2023-09-12T04:01:31;51.70;;;38.42;;
10335;SDS011;5213;53.548;9.930;2023-09-12T04:03:57;54.55;;;39.50;;
10335;SDS011;5213;53.548;9.930;2023-09-12T04:06:23;47.90;;;37.95;;
10335;SDS011;5213;53.548;9.930;2023-09-12T04:08:49;50.53;;;38.22;;
10335;SDS011;5213;53.548;9.930;2023-09-12T04:11:14;57.53;;;40.55;;
10335;SDS011;5213;53.548;9.930;2023-09-12T04:13:40;61.08;;;39.45;;
10335;SDS011;5213;53.548;9.930;2023-09-12T04:16:05;57.55;;;42.20;;
10335;SDS011;5213;53.548;9.930;2023-09-12T04:18:31;58.78;;;41.20;;
10335;SDS011;5213;53.548;9.930;2023-09-12T04:20:57;56.42;;;40.97;;
10335;SDS011;5213;53.548;9.930;2023-09-12T04:23:24;56.33;;;41.13;;
10335;SDS011;5213;53.548;9.930;2023-09-12T04:25:50;54.90;;;41.33;;
10335;SDS011;5213;53.548;9.930;2023-09-12T04:28:15;57.28;;;41.40;;
10335;SDS011;5213;53.548;9.930;2023-09-12T04:30:41;59.97;;;41.42;;
10335;SDS011;5213;53.548;9.930;2023-09-12T04:33:07;60.15;;;42.47;;
10335;SDS011;5213;53.548;9.930;2023-09-12T04:35:33;60.47;;;41.20;;
10335;SDS011;5213;53.548;9.930;2023-09-12T04:37:59;55.97;;;40.00;;
10335;SDS011;5213;53.548;9.930;2023-09-12T04:40:24;63.78;;;42.00;;
10335;SDS011;5213;53.548;9.930;2023-09-12T04:42:50;65.68;;;43.55;;
10335;SDS011;5213;53.548;9.930;2023-09-12T04:45:16;63.35;;;42.60;;
10335;SDS011;5213;53.548;9.930;2023-09-12T04:47:41;60.03;;;41.67;;
10335;SDS011;5213;53.548;9.930;2023-09-12T04:50:07;62.35;;;41.20;;
10335;SDS011;5213;53.548;9.930;2023-09-12T04:52:33;62.17;;;42.28;;
10335;SDS011;5213;53.548;9.930;2023-09-12T04:54:58;60.72;;;43.03;;
10335;SDS011;5213;53.548;9.930;2023-09-12T04:57:24;60.75;;;41.60;;
10335;SDS011;5213;53.548;9.930;2023-09-12T04:59:50;66.20;;;42.25;;
10335;SDS011;5213;53.548;9.930;2023-09-12T05:02:17;65.22;;;44.90;;
10335;SDS011;5213;53.548;9.930;2023-09-12T05:04:42;62.95;;;42.63;;
10335;SDS011;5213;53.548;9.930;2023-09-12T05:07:08;65.75;;;43.28;;
10335;SDS011;5213;53.548;9.930;2023-09-12T05:09:34;66.57;;;43.50;;
10335;SDS011;5213;53.548;9.930;2023-09-12T05:11:59;67.50;;;43.72;;
10335;SDS011;5213;53.548;9.930;2023-09-12T05:14:25;66.85;;;42.67;;
10335;SDS011;5213;53.548;9.930;2023-09-12T05:16:50;67.72;;;41.97;;
10335;SDS011;5213;53.548;9.930;2023-09-12T05:19:16;67.43;;;41.97;;
10335;SDS011;5213;53.548;9.930;2023-09-12T05:21:42;69.15;;;43.63;;
10335;SDS011;5213;53.548;9.930;2023-09-12T05:24:07;70.70;;;44.38;;
10335;SDS011;5213;53.548;9.930;2023-09-12T05:26:33;68.72;;;43.83;;
10335;SDS011;5213;53.548;9.930;2023-09-12T05:28:59;67.75;;;43.78;;
10335;SDS011;5213;53.548;9.930;2023-09-12T05:31:24;68.65;;;42.97;;
10335;SDS011;5213;53.548;9.930;2023-09-12T05:33:50;64.38;;;42.65;;
10335;SDS011;5213;53.548;9.930;2023-09-12T05:36:16;61.92;;;41.10;;
10335;SDS011;5213;53.548;9.930;2023-09-12T05:38:41;60.05;;;41.83;;
10335;SDS011;5213;53.548;9.930;2023-09-12T05:41:07;65.65;;;41.95;;
10335;SDS011;5213;53.548;9.930;2023-09-12T05:43:32;63.45;;;43.13;;
10335;SDS011;5213;53.548;9.930;2023-09-12T05:45:58;65.25;;;42.08;;
10335;SDS011;5213;53.548;9.930;2023-09-12T05:48:24;59.63;;;40.83;;
10335;SDS011;5213;53.548;9.930;2023-09-12T05:50:49;60.72;;;41.45;;
10335;SDS011;5213;53.548;9.930;2023-09-12T05:53:15;61.80;;;40.83;;
10335;SDS011;5213;53.548;9.930;2023-09-12T05:55:41;65.20;;;41.42;;
10335;SDS011;5213;53.548;9.930;2023-09-12T05:58:06;62.20;;;40.53;;
10335;SDS011;5213;53.548;9.930;2023-09-12T06:00:32;55.88;;;38.80;;
10335;SDS011;5213;53.548;9.930;2023-09-12T06:02:58;66.82;;;41.75;;
10335;SDS011;5213;53.548;9.930;2023-09-12T06:05:24;56.90;;;39.80;;
10335;SDS011;5213;53.548;9.930;2023-09-12T06:07:49;58.88;;;40.47;;
10335;SDS011;5213;53.548;9.930;2023-09-12T06:10:15;62.00;;;41.17;;
10335;SDS011;5213;53.548;9.930;2023-09-12T06:12:41;59.90;;;39.55;;
10335;SDS011;5213;53.548;9.930;2023-09-12T06:15:06;57.17;;;38.85;;
10335;SDS011;5213;53.548;9.930;2023-09-12T06:17:32;57.33;;;39.38;;
10335;SDS011;5213;53.548;9.930;2023-09-12T06:19:58;58.35;;;40.15;;
10335;SDS011;5213;53.548;9.930;2023-09-12T06:22:24;58.72;;;38.67;;
10335;SDS011;5213;53.548;9.930;2023-09-12T06:24:50;54.00;;;37.83;;
10335;SDS011;5213;53.548;9.930;2023-09-12T06:27:16;54.25;;;37.97;;
10335;SDS011;5213;53.548;9.930;2023-09-12T06:29:45;51.92;;;36.35;;
10335;SDS011;5213;53.548;9.930;2023-09-12T06:32:13;51.40;;;35.42;;
10335;SDS011;5213;53.548;9.930;2023-09-12T06:34:44;50.60;;;36.88;;
10335;SDS011;5213;53.548;9.930;2023-09-12T06:37:10;49.10;;;36.45;;
10335;SDS011;5213;53.548;9.930;2023-09-12T06:39:37;51.55;;;36.42;;
10335;SDS011;5213;53.548;9.930;2023-09-12T06:42:02;54.25;;;36.42;;
10335;SDS011;5213;53.548;9.930;2023-09-12T06:44:28;51.58;;;36.33;;
10335;SDS011;5213;53.548;9.930;2023-09-12T06:46:54;53.97;;;37.85;;
10335;SDS011;5213;53.548;9.930;2023-09-12T06:49:19;53.72;;;37.47;;
10335;SDS011;5213;53.548;9.930;2023-09-12T06:51:45;55.28;;;38.75;;
10335;SDS011;5213;53.548;9.930;2023-09-12T06:54:11;52.83;;;37.13;;
10335;SDS011;5213;53.548;9.930;2023-09-12T06:56:37;50.08;;;36.38;;
10335;SDS011;5213;53.548;9.930;2023-09-12T06:59:03;52.47;;;36.97;;
10335;SDS011;5213;53.548;9.930;2023-09-12T07:01:29;49.03;;;35.85;;
10335;SDS011;5213;53.548;9.930;2023-09-12T07:03:55;45.80;;;35.08;;
10335;SDS011;5213;53.548;9.930;2023-09-12T07:06:21;47.92;;;34.95;;
10335;SDS011;5213;53.548;9.930;2023-09-12T07:08:47;46.33;;;34.45;;
10335;SDS011;5213;53.548;9.930;2023-09-12T07:11:13;45.30;;;34.58;;
10335;SDS011;5213;53.548;9.930;2023-09-12T07:13:39;47.97;;;35.33;;
10335;SDS011;5213;53.548;9.930;2023-09-12T07:16:05;41.80;;;32.65;;
10335;SDS011;5213;53.548;9.930;2023-09-12T07:18:30;46.15;;;34.25;;
10335;SDS011;5213;53.548;9.930;2023-09-12T07:21:00;46.58;;;34.35;;
10335;SDS011;5213;53.548;9.930;2023-09-12T07:23:27;44.88;;;33.00;;
10335;SDS011;5213;53.548;9.930;2023-09-12T07:25:53;47.08;;;35.17;;
10335;SDS011;5213;53.548;9.930;2023-09-12T07:28:20;47.72;;;34.15;;
10335;SDS011;5213;53.548;9.930;2023-09-12T07:30:46;43.13;;;32.45;;
10335;SDS011;5213;53.548;9.930;2023-09-12T07:33:12;44.30;;;33.92;;
10335;SDS011;5213;53.548;9.930;2023-09-12T07:35:38;42.33;;;32.03;;
10335;SDS011;5213;53.548;9.930;2023-09-12T07:38:04;46.38;;;34.05;;
10335;SDS011;5213;53.548;9.930;2023-09-12T07:40:29;43.35;;;31.77;;
10335;SDS011;5213;53.548;9.930;2023-09-12T07:42:55;39.13;;;31.33;;
10335;SDS011;5213;53.548;9.930;2023-09-12T07:45:20;40.83;;;30.88;;
10335;SDS011;5213;53.548;9.930;2023-09-12T07:47:46;38.95;;;32.78;;
10335;SDS011;5213;53.548;9.930;2023-09-12T07:50:12;38.45;;;30.55;;
10335;SDS011;5213;53.548;9.930;2023-09-12T07:52:37;35.83;;;29.38;;
10335;SDS011;5213;53.548;9.930;2023-09-12T07:55:03;34.05;;;28.33;;
10335;SDS011;5213;53.548;9.930;2023-09-12T07:57:29;35.20;;;28.20;;
10335;SDS011;5213;53.548;9.930;2023-09-12T07:59:55;31.92;;;26.88;;
10335;SDS011;5213;53.548;9.930;2023-09-12T08:02:22;33.83;;;28.20;;
10335;SDS011;5213;53.548;9.930;2023-09-12T08:04:51;32.17;;;28.00;;
10335;SDS011;5213;53.548;9.930;2023-09-12T08:07:18;32.15;;;27.17;;
10335;SDS011;5213;53.548;9.930;2023-09-12T08:09:52;34.83;;;29.20;;
10335;SDS011;5213;53.548;9.930;2023-09-12T08:12:18;36.75;;;28.88;;
10335;SDS011;5213;53.548;9.930;2023-09-12T08:14:45;34.38;;;27.95;;
10335;SDS011;5213;53.548;9.930;2023-09-12T08:17:11;32.25;;;28.48;;
10335;SDS011;5213;53.548;9.930;2023-09-12T08:19:37;37.28;;;29.98;;
10335;SDS011;5213;53.548;9.930;2023-09-12T08:22:03;35.38;;;28.33;;
10335;SDS011;5213;53.548;9.930;2023-09-12T08:24:29;33.22;;;27.27;;
10335;SDS011;5213;53.548;9.930;2023-09-12T08:26:55;29.33;;;25.75;;
10335;SDS011;5213;53.548;9.930;2023-09-12T08:29:20;31.33;;;25.75;;
10335;SDS011;5213;53.548;9.930;2023-09-12T08:31:46;30.48;;;25.63;;
10335;SDS011;5213;53.548;9.930;2023-09-12T08:34:12;37.40;;;26.08;;
10335;SDS011;5213;53.548;9.930;2023-09-12T08:36:38;31.65;;;26.38;;
10335;SDS011;5213;53.548;9.930;2023-09-12T08:39:04;31.17;;;26.83;;
10335;SDS011;5213;53.548;9.930;2023-09-12T08:41:32;27.30;;;23.13;;
10335;SDS011;5213;53.548;9.930;2023-09-12T08:43:59;28.95;;;23.60;;
10335;SDS011;5213;53.548;9.930;2023-09-12T08:46:25;27.60;;;24.65;;
10335;SDS011;5213;53.548;9.930;2023-09-12T08:48:51;24.35;;;21.75;;
10335;SDS011;5213;53.548;9.930;2023-09-12T08:51:20;24.52;;;21.80;;
10335;SDS011;5213;53.548;9.930;2023-09-12T08:53:48;26.35;;;22.00;;
10335;SDS011;5213;53.548;9.930;2023-09-12T08:56:14;26.92;;;22.00;;
10335;SDS011;5213;53.548;9.930;2023-09-12T08:58:40;24.48;;;21.48;;
10335;SDS011;5213;53.548;9.930;2023-09-12T09:01:06;24.13;;;21.63;;
10335;SDS011;5213;53.548;9.930;2023-09-12T09:03:35;24.05;;;21.50;;
10335;SDS011;5213;53.548;9.930;2023-09-12T09:06:02;27.92;;;21.55;;
10335;SDS011;5213;53.548;9.930;2023-09-12T09:08:30;24.60;;;22.00;;
10335;SDS011;5213;53.548;9.930;2023-09-12T09:10:57;24.13;;;21.38;;
10335;SDS011;5213;53.548;9.930;2023-09-12T09:13:25;23.08;;;20.67;;
10335;SDS011;5213;53.548;9.930;2023-09-12T09:16:08;30.27;;;21.65;;
10335;SDS011;5213;53.548;9.930;2023-09-12T09:21:28;22.23;;;19.10;;
10335;SDS011;5213;53.548;9.930;2023-09-12T09:23:57;21.92;;;19.63;;
10335;SDS011;5213;53.548;9.930;2023-09-12T09:26:52;22.00;;;19.25;;
10335;SDS011;5213;53.548;9.930;2023-09-12T09:29:24;20.73;;;18.63;;
10335;SDS011;5213;53.548;9.930;2023-09-12T09:31:50;20.63;;;18.42;;
10335;SDS011;5213;53.548;9.930;2023-09-12T09:34:18;20.55;;;18.45;;
10335;SDS011;5213;53.548;9.930;2023-09-12T09:36:47;20.15;;;18.23;;
10335;SDS011;5213;53.548;9.930;2023-09-12T09:39:18;20.05;;;18.00;;
10335;SDS011;5213;53.548;9.930;2023-09-12T09:41:49;18.85;;;16.95;;
10335;SDS011;5213;53.548;9.930;2023-09-12T09:44:17;19.38;;;17.38;;
10335;SDS011;5213;53.548;9.930;2023-09-12T09:46:43;18.60;;;16.70;;
10335;SDS011;5213;53.548;9.930;2023-09-12T09:49:10;18.40;;;16.40;;
10335;SDS011;5213;53.548;9.930;2023-09-12T09:51:42;18.15;;;16.35;;
10335;SDS011;5213;53.548;9.930;2023-09-12T09:54:09;20.27;;;17.65;;
10335;SDS011;5213;53.548;9.930;2023-09-12T09:56:46;20.60;;;18.05;;
10335;SDS011;5213;53.548;9.930;2023-09-12T09:59:18;19.15;;;17.15;;
10335;SDS011;5213;53.548;9.930;2023-09-12T10:01:46;20.55;;;18.38;;
10335;SDS011;5213;53.548;9.930;2023-09-12T10:04:14;21.48;;;19.15;;
10335;SDS011;5213;53.548;9.930;2023-09-12T10:06:42;21.15;;;18.80;;
10335;SDS011;5213;53.548;9.930;2023-09-12T10:09:09;22.45;;;19.60;;
10335;SDS011;5213;53.548;9.930;2023-09-12T10:11:40;21.42;;;19.13;;
10335;SDS011;5213;53.548;9.930;2023-09-12T10:14:08;23.35;;;19.67;;
10335;SDS011;5213;53.548;9.930;2023-09-12T10:16:35;21.52;;;19.33;;
10335;SDS011;5213;53.548;9.930;2023-09-12T10:19:23;22.55;;;20.20;;
10335;SDS011;5213;53.548;9.930;2023-09-12T10:24:27;25.67;;;21.45;;
10335;SDS011;5213;53.548;9.930;2023-09-12T10:26:54;25.88;;;21.23;;
10335;SDS011;5213;53.548;9.930;2023-09-12T10:29:22;24.98;;;21.98;;
10335;SDS011;5213;53.548;9.930;2023-09-12T10:31:48;23.90;;;21.45;;
10335;SDS011;5213;53.548;9.930;2023-09-12T10:34:14;25.50;;;22.88;;
10335;SDS011;5213;53.548;9.930;2023-09-12T10:36:41;24.35;;;21.75;;
10335;SDS011;5213;53.548;9.930;2023-09-12T10:39:08;24.55;;;21.90;;
10335;SDS011;5213;53.548;9.930;2023-09-12T10:41:39;23.30;;;20.90;;
10335;SDS011;5213;53.548;9.930;2023-09-12T10:44:15;24.38;;;21.77;;
10335;SDS011;5213;53.548;9.930;2023-09-12T10:46:42;24.10;;;21.40;;
10335;SDS011;5213;53.548;9.930;2023-09-12T10:49:10;24.40;;;21.80;;
10335;SDS011;5213;53.548;9.930;2023-09-12T10:51:40;25.48;;;22.95;;
10335;SDS011;5213;53.548;9.930;2023-09-12T10:54:07;23.92;;;21.60;;
10335;SDS011;5213;53.548;9.930;2023-09-12T10:56:34;25.73;;;23.08;;
10335;SDS011;5213;53.548;9.930;2023-09-12T11:01:35;25.77;;;23.17;;
10335;SDS011;5213;53.548;9.930;2023-09-12T11:04:44;27.48;;;24.63;;
10335;SDS011;5213;53.548;9.930;2023-09-12T11:06:53;29.20;;;23.95;;
10335;SDS011;5213;53.548;9.930;2023-09-12T11:09:23;28.60;;;24.70;;
10335;SDS011;5213;53.548;9.930;2023-09-12T11:14:24;28.60;;;24.58;;
10335;SDS011;5213;53.548;9.930;2023-09-12T11:17:12;27.92;;;24.95;;
10335;SDS011;5213;53.548;9.930;2023-09-12T11:19:43;27.55;;;24.48;;
10335;SDS011;5213;53.548;9.930;2023-09-12T11:22:31;27.38;;;24.45;;
10335;SDS011;5213;53.548;9.930;2023-09-12T11:24:57;27.73;;;23.52;;
10335;SDS011;5213;53.548;9.930;2023-09-12T11:27:30;28.75;;;25.23;;
10335;SDS011;5213;53.548;9.930;2023-09-12T11:30:29;28.58;;;25.33;;
10335;SDS011;5213;53.548;9.930;2023-09-12T11:32:56;27.73;;;24.60;;
10335;SDS011;5213;53.548;9.930;2023-09-12T11:35:26;29.45;;;25.40;;
10335;SDS011;5213;53.548;9.930;2023-09-12T11:37:57;29.33;;;25.90;;
10335;SDS011;5213;53.548;9.930;2023-09-12T11:42:51;27.83;;;24.30;;
10335;SDS011;5213;53.548;9.930;2023-09-12T11:45:18;28.90;;;25.13;;
10335;SDS011;5213;53.548;9.930;2023-09-12T11:47:45;28.00;;;24.85;;
10335;SDS011;5213;53.548;9.930;2023-09-12T11:50:27;28.55;;;25.17;;
10335;SDS011;5213;53.548;9.930;2023-09-12T11:53:05;25.50;;;22.73;;
10335;SDS011;5213;53.548;9.930;2023-09-12T11:55:33;23.73;;;21.20;;
10335;SDS011;5213;53.548;9.930;2023-09-12T11:58:01;23.40;;;21.00;;
10335;SDS011;5213;53.548;9.930;2023-09-12T12:00:28;23.25;;;20.90;;
10335;SDS011;5213;53.548;9.930;2023-09-12T12:02:54;21.60;;;19.42;;
10335;SDS011;5213;53.548;9.930;2023-09-12T12:05:20;21.27;;;19.17;;
10335;SDS011;5213;53.548;9.930;2023-09-12T12:07:47;20.52;;;18.55;;
10335;SDS011;5213;53.548;9.930;2023-09-12T12:10:13;21.05;;;18.85;;
10335;SDS011;5213;53.548;9.930;2023-09-12T12:12:39;21.25;;;19.00;;
10335;SDS011;5213;53.548;9.930;2023-09-12T12:15:10;20.40;;;18.40;;
10335;SDS011;5213;53.548;9.930;2023-09-12T12:17:41;18.17;;;16.35;;
10335;SDS011;5213;53.548;9.930;2023-09-12T12:20:08;18.45;;;16.75;;
10335;SDS011;5213;53.548;9.930;2023-09-12T12:22:44;19.02;;;17.20;;
10335;SDS011;5213;53.548;9.930;2023-09-12T12:25:10;18.30;;;16.58;;
10335;SDS011;5213;53.548;9.930;2023-09-12T12:27:40;18.60;;;16.70;;
10335;SDS011;5213;53.548;9.930;2023-09-12T12:30:07;17.70;;;16.08;;
10335;SDS011;5213;53.548;9.930;2023-09-12T12:32:35;18.63;;;16.80;;
10335;SDS011;5213;53.548;9.930;2023-09-12T12:35:05;17.25;;;15.55;;
10335;SDS011;5213;53.548;9.930;2023-09-12T12:37:32;18.50;;;16.75;;
10335;SDS011;5213;53.548;9.930;2023-09-12T12:39:58;18.17;;;16.38;;
10335;SDS011;5213;53.548;9.930;2023-09-12T12:42:35;17.02;;;15.32;;
10335;SDS011;5213;53.548;9.930;2023-09-12T12:45:13;17.83;;;16.15;;
10335;SDS011;5213;53.548;9.930;2023-09-12T12:47:41;16.90;;;15.30;;
10335;SDS011;5213;53.548;9.930;2023-09-12T12:50:08;17.88;;;16.17;;
10335;SDS011;5213;53.548;9.930;2023-09-12T12:52:35;17.55;;;15.85;;
10335;SDS011;5213;53.548;9.930;2023-09-12T12:55:09;17.10;;;15.50;;
10335;SDS011;5213;53.548;9.930;2023-09-12T12:57:37;17.33;;;15.77;;
10335;SDS011;5213;53.548;9.930;2023-09-12T13:00:05;17.67;;;15.93;;
10335;SDS011;5213;53.548;9.930;2023-09-12T13:02:36;16.95;;;15.35;;
10335;SDS011;5213;53.548;9.930;2023-09-12T13:05:06;16.55;;;15.02;;
10335;SDS011;5213;53.548;9.930;2023-09-12T13:07:44;17.10;;;15.50;;
10335;SDS011;5213;53.548;9.930;2023-09-12T13:10:10;16.13;;;14.63;;
10335;SDS011;5213;53.548;9.930;2023-09-12T13:12:36;17.60;;;15.80;;
10335;SDS011;5213;53.548;9.930;2023-09-12T13:15:03;16.88;;;15.27;;
10335;SDS011;5213;53.548;9.930;2023-09-12T13:17:29;15.27;;;13.90;;
10335;SDS011;5213;53.548;9.930;2023-09-12T13:19:55;16.90;;;15.30;;
10335;SDS011;5213;53.548;9.930;2023-09-12T13:22:20;15.82;;;14.32;;
10335;SDS011;5213;53.548;9.930;2023-09-12T13:24:46;15.65;;;14.15;;
10335;SDS011;5213;53.548;9.930;2023-09-12T13:27:12;14.60;;;13.23;;
10335;SDS011;5213;53.548;9.930;2023-09-12T13:29:38;16.48;;;14.98;;
10335;SDS011;5213;53.548;9.930;2023-09-12T13:32:04;16.70;;;15.02;;
10335;SDS011;5213;53.548;9.930;2023-09-12T13:34:30;16.75;;;15.15;;
10335;SDS011;5213;53.548;9.930;2023-09-12T13:36:56;16.38;;;14.77;;
10335;SDS011;5213;53.548;9.930;2023-09-12T13:39:23;15.80;;;14.40;;
10335;SDS011;5213;53.548;9.930;2023-09-12T13:41:49;15.50;;;14.02;;
10335;SDS011;5213;53.548;9.930;2023-09-12T13:44:16;14.98;;;13.48;;
10335;SDS011;5213;53.548;9.930;2023-09-12T13:46:42;16.08;;;14.43;;
10335;SDS011;5213;53.548;9.930;2023-09-12T13:49:11;14.65;;;13.25;;
10335;SDS011;5213;53.548;9.930;2023-09-12T13:51:36;16.45;;;14.77;;
10335;SDS011;5213;53.548;9.930;2023-09-12T13:54:02;17.63;;;15.93;;
10335;SDS011;5213;53.548;9.930;2023-09-12T13:56:28;16.42;;;14.93;;
10335;SDS011;5213;53.548;9.930;2023-09-12T13:58:54;17.65;;;15.88;;
10335;SDS011;5213;53.548;9.930;2023-09-12T14:01:20;17.33;;;15.52;;
10335;SDS011;5213;53.548;9.930;2023-09-12T14:03:47;16.50;;;14.98;;
10335;SDS011;5213;53.548;9.930;2023-09-12T14:06:13;16.20;;;14.60;;
10335;SDS011;5213;53.548;9.930;2023-09-12T14:08:39;17.38;;;15.75;;
10335;SDS011;5213;53.548;9.930;2023-09-12T14:11:04;16.92;;;15.05;;
10335;SDS011;5213;53.548;9.930;2023-09-12T14:13:30;17.60;;;15.80;;
10335;SDS011;5213;53.548;9.930;2023-09-12T14:15:56;16.48;;;14.98;;
10335;SDS011;5213;53.548;9.930;2023-09-12T14:18:21;16.77;;;15.20;;
10335;SDS011;5213;53.548;9.930;2023-09-12T14:20:47;16.33;;;14.80;;
10335;SDS011;5213;53.548;9.930;2023-09-12T14:23:14;16.42;;;14.68;;
10335;SDS011;5213;53.548;9.930;2023-09-12T14:25:41;15.23;;;13.82;;
10335;SDS011;5213;53.548;9.930;2023-09-12T14:28:07;14.10;;;12.65;;
10335;SDS011;5213;53.548;9.930;2023-09-12T14:30:32;15.98;;;14.48;;
10335;SDS011;5213;53.548;9.930;2023-09-12T14:33:01;17.05;;;15.38;;
10335;SDS011;5213;53.548;9.930;2023-09-12T14:35:27;16.90;;;15.15;;
10335;SDS011;5213;53.548;9.930;2023-09-12T14:37:53;17.13;;;15.15;;
10335;SDS011;5213;53.548;9.930;2023-09-12T14:40:18;16.50;;;14.90;;
10335;SDS011;5213;53.548;9.930;2023-09-12T14:42:44;15.60;;;14.00;;
10335;SDS011;5213;53.548;9.930;2023-09-12T14:45:10;16.85;;;15.25;;
10335;SDS011;5213;53.548;9.930;2023-09-12T14:47:36;15.25;;;13.75;;